Time;durP1;ratioP1;P1;durP2;ratioP2;P2;SDS_P1;SDS_P2;PMS_P1;PMS_P2;Temp;Humidity;BMP_temperature;BMP_pressure;BME280_temperature;BME280_humidity;BME280_pressure;Samples;Min_cycle;Max_cycle;Signal;HPM_P1;HPM_P2
2022/09/12 00:02:19;;;;;;;11.57;7.27;;;13.60;99.90;;;;;;5030993;28;20242;-75
2022/09/12 00:04:45;;;;;;;9.03;8.00;;;13.60;99.90;;;;;;5029279;28;20205;-75
2022/09/12 00:07:10;;;;;;;8.53;7.00;;;13.60;99.90;;;;;;5028792;28;20185;-76
2022/09/12 00:09:36;;;;;;;11.60;7.60;;;13.60;99.90;;;;;;5029653;28;20176;-75
2022/09/12 00:12:03;;;;;;;7.50;6.80;;;13.60;99.90;;;;;;5029009;28;20205;-76
2022/09/12 00:14:28;;;;;;;10.90;7.27;;;13.50;99.90;;;;;;5030562;28;20430;-76
2022/09/12 00:16:58;;;;;;;11.57;7.60;;;13.40;99.90;;;;;;5029060;28;20562;-75
2022/09/12 00:19:24;;;;;;;9.90;7.70;;;13.40;99.90;;;;;;5029123;28;20184;-75
2022/09/12 00:21:50;;;;;;;9.17;7.43;;;13.30;99.90;;;;;;5030594;28;20524;-75
2022/09/12 00:24:15;;;;;;;10.37;8.13;;;13.20;99.90;;;;;;5030541;28;20478;-75
2022/09/12 00:26:41;;;;;;;9.87;7.53;;;13.20;99.90;;;;;;5030531;28;20271;-75
2022/09/12 00:29:07;;;;;;;8.97;8.10;;;13.10;99.90;;;;;;5030283;28;20195;-75
2022/09/12 00:31:32;;;;;;;9.20;7.57;;;13.10;99.90;;;;;;5030332;28;20208;-74
2022/09/12 00:34:02;;;;;;;9.33;8.27;;;13.10;99.90;;;;;;5028548;28;20204;-75
2022/09/12 00:36:29;;;;;;;10.93;8.17;;;13.00;99.90;;;;;;5029939;28;20176;-76
2022/09/12 00:38:55;;;;;;;12.67;9.50;;;13.00;99.90;;;;;;5029824;28;20505;-76
2022/09/12 00:41:35;;;;;;;11.60;8.40;;;12.90;99.90;;;;;;5028068;28;20480;-75
2022/09/12 00:44:23;;;;;;;9.60;8.60;;;12.80;99.90;;;;;;5029410;28;20430;-75
2022/09/12 00:46:57;;;;;;;9.13;7.80;;;12.80;99.90;;;;;;5014937;28;20529;-77
2022/09/12 00:49:29;;;;;;;10.63;8.70;;;12.80;99.90;;;;;;5030550;28;20415;-77
2022/09/12 00:52:08;;;;;;;19.23;9.37;;;12.80;99.90;;;;;;5030027;28;20443;-76
2022/09/12 00:54:47;;;;;;;9.60;8.37;;;12.80;99.90;;;;;;5028090;28;20509;-76
2022/09/12 00:57:16;;;;;;;12.60;8.97;;;12.70;99.90;;;;;;5029144;28;20422;-75
2022/09/12 00:59:52;;;;;;;13.33;9.50;;;12.60;99.90;;;;;;5029170;28;20434;-76
2022/09/12 01:02:20;;;;;;;11.47;9.63;;;12.70;99.90;;;;;;5029717;28;20443;-79
2022/09/12 01:04:46;;;;;;;11.80;9.73;;;12.60;99.90;;;;;;5028001;28;20465;-79
2022/09/12 01:07:14;;;;;;;14.20;8.77;;;12.60;99.90;;;;;;5028088;28;20450;-78
2022/09/12 01:09:41;;;;;;;11.13;9.10;;;12.40;99.90;;;;;;5028056;28;20548;-78
2022/09/12 01:12:08;;;;;;;11.77;9.37;;;12.60;99.90;;;;;;5027643;28;20472;-78
2022/09/12 01:14:33;;;;;;;12.90;9.67;;;12.60;99.90;;;;;;5029460;28;20434;-77
2022/09/12 01:16:59;;;;;;;11.00;9.50;;;12.60;99.90;;;;;;5027513;28;20958;-78
2022/09/12 01:19:56;;;;;;;15.80;11.50;;;12.50;99.90;;;;;;5029172;28;20955;-77
2022/09/12 01:22:21;;;;;;;13.40;9.83;;;12.40;99.90;;;;;;5029065;28;20923;-76
2022/09/12 01:24:47;;;;;;;12.37;9.70;;;12.40;99.90;;;;;;5027632;28;20488;-76
2022/09/12 01:27:38;;;;;;;12.90;10.07;;;12.30;99.90;;;;;;5029100;28;20195;-76
2022/09/12 01:30:15;;;;;;;12.93;10.57;;;12.30;99.90;;;;;;5021318;28;20196;-76
2022/09/12 01:32:46;;;;;;;11.97;10.33;;;12.30;99.90;;;;;;5028967;28;20438;-76
2022/09/12 01:35:34;;;;;;;12.90;10.07;;;12.20;99.90;;;;;;5028759;28;20511;-75
2022/09/12 01:38:11;;;;;;;12.67;10.57;;;12.20;99.90;;;;;;5028772;28;20424;-76
2022/09/12 01:40:37;;;;;;;14.30;11.43;;;12.10;99.90;;;;;;5028646;28;20450;-75
2022/09/12 01:43:07;;;;;;;18.70;11.90;;;12.00;99.90;;;;;;5026742;28;20478;-75
2022/09/12 01:45:45;;;;;;;16.80;11.43;;;11.90;99.90;;;;;;5026903;28;20215;-75
2022/09/12 01:48:28;;;;;;;18.30;12.00;;;11.70;99.90;;;;;;5028404;28;20418;-75
2022/09/12 01:51:25;;;;;;;17.27;12.30;;;11.60;99.90;;;;;;5028339;28;20519;-76
2022/09/12 01:53:59;;;;;;;11.73;9.80;;;11.60;99.90;;;;;;5028469;28;20413;-75
2022/09/12 01:56:28;;;;;;;16.90;10.10;;;11.70;99.90;;;;;;5028607;28;20418;-75
2022/09/12 01:59:07;;;;;;;12.90;10.17;;;11.70;99.90;;;;;;5028240;28;20434;-76
2022/09/12 02:01:38;;;;;;;13.47;10.20;;;11.70;99.90;;;;;;5028355;28;20529;-76
2022/09/12 02:04:18;;;;;;;13.13;10.17;;;11.60;99.90;;;;;;5026815;28;20417;-75
2022/09/12 02:06:54;;;;;;;11.77;8.90;;;11.70;99.90;;;;;;5026950;28;20445;-76
2022/09/12 02:09:27;;;;;;;14.90;9.60;;;11.80;99.90;;;;;;5028246;28;20900;-76
2022/09/12 02:11:57;;;;;;;17.97;9.70;;;11.60;99.90;;;;;;5028376;28;20458;-76
2022/09/12 02:14:27;;;;;;;16.97;11.20;;;11.50;99.90;;;;;;5026756;28;20453;-76
2022/09/12 02:16:55;;;;;;;12.87;10.10;;;11.30;99.90;;;;;;5028472;28;20433;-76
2022/09/12 02:19:26;;;;;;;14.00;10.13;;;11.30;99.90;;;;;;5028103;28;20923;-76
2022/09/12 02:21:55;;;;;;;21.40;11.23;;;11.40;99.90;;;;;;5028399;28;20442;-76
2022/09/12 02:24:28;;;;;;;15.50;11.67;;;11.10;99.90;;;;;;5028502;28;20469;-76
2022/09/12 02:27:02;;;;;;;18.60;12.13;;;11.10;99.90;;;;;;5028233;28;20437;-76
2022/09/12 02:29:29;;;;;;;17.07;10.70;;;11.00;99.90;;;;;;5030386;28;20800;-75
2022/09/12 02:32:04;;;;;;;15.27;12.00;;;11.10;99.90;;;;;;5032030;28;20516;-75
2022/09/12 02:34:54;;;;;;;16.13;10.60;;;11.20;99.90;;;;;;5030581;28;20607;-75
2022/09/12 02:37:44;;;;;;;15.80;12.27;;;11.20;99.90;;;;;;5031830;28;20427;-76
2022/09/12 02:40:11;;;;;;;16.40;11.03;;;11.30;99.90;;;;;;5031918;28;20533;-76
2022/09/12 02:42:37;;;;;;;16.47;11.87;;;11.40;99.90;;;;;;5031802;28;20485;-76
2022/09/12 02:45:03;;;;;;;17.77;12.70;;;11.30;99.90;;;;;;5031652;28;20508;-76
2022/09/12 02:47:51;;;;;;;17.90;11.00;;;11.40;99.90;;;;;;5031749;28;20421;-76
2022/09/12 02:50:17;;;;;;;16.70;12.40;;;11.40;99.90;;;;;;5023275;28;20413;-76
2022/09/12 02:52:44;;;;;;;14.80;11.67;;;11.50;99.90;;;;;;5031528;28;20441;-75
2022/09/12 02:55:10;;;;;;;13.97;11.07;;;11.30;99.90;;;;;;5030137;28;20193;-76
2022/09/12 02:57:36;;;;;;;21.90;11.27;;;11.50;99.90;;;;;;5031500;28;20567;-76
2022/09/12 03:00:03;;;;;;;12.83;10.57;;;11.50;99.90;;;;;;5031500;28;21364;-76
2022/09/12 03:02:58;;;;;;;17.27;11.03;;;11.50;99.90;;;;;;5031211;28;20438;-76
2022/09/12 03:05:56;;;;;;;16.03;10.67;;;11.50;99.90;;;;;;5010752;28;20478;-76
2022/09/12 03:08:34;;;;;;;14.63;10.90;;;11.40;99.90;;;;;;5031441;28;20433;-76
2022/09/12 03:11:21;;;;;;;12.43;9.60;;;11.50;99.90;;;;;;5031488;28;20456;-76
2022/09/12 03:14:00;;;;;;;13.13;9.50;;;11.50;99.90;;;;;;5031270;28;20437;-76
2022/09/12 03:16:55;;;;;;;14.60;9.57;;;11.50;99.90;;;;;;5031527;28;20441;-76
2022/09/12 03:19:29;;;;;;;9.87;8.20;;;11.50;99.90;;;;;;5031238;28;20497;-76
2022/09/12 03:22:14;;;;;;;15.73;9.70;;;11.50;99.90;;;;;;5029784;28;20447;-75
2022/09/12 03:25:03;;;;;;;10.40;9.30;;;11.50;99.90;;;;;;5031262;28;20474;-76
2022/09/12 03:27:35;;;;;;;15.93;10.60;;;11.50;99.90;;;;;;5033919;28;20561;-75
2022/09/12 03:30:04;;;;;;;13.17;10.70;;;11.60;99.90;;;;;;5029948;28;20423;-75
2022/09/12 03:32:43;;;;;;;16.97;11.70;;;11.60;99.90;;;;;;5031218;28;20429;-75
2022/09/12 03:35:10;;;;;;;16.07;12.03;;;11.60;99.90;;;;;;5031577;28;20421;-76
2022/09/12 03:37:35;;;;;;;21.03;12.87;;;11.70;99.90;;;;;;5031424;28;20493;-76
2022/09/12 03:40:03;;;;;;;15.10;11.33;;;11.70;99.90;;;;;;5029911;28;20421;-76
2022/09/12 03:42:28;;;;;;;17.63;11.93;;;11.70;99.90;;;;;;5031548;28;20912;-76
2022/09/12 03:44:54;;;;;;;14.33;10.00;;;11.70;99.90;;;;;;5031412;28;20468;-76
2022/09/12 03:47:19;;;;;;;19.00;11.97;;;11.60;99.90;;;;;;5031443;28;20197;-76
2022/09/12 03:49:45;;;;;;;18.47;11.10;;;11.70;99.90;;;;;;5030121;28;20195;-75
2022/09/12 03:52:11;;;;;;;23.17;14.43;;;11.60;99.90;;;;;;5031267;28;20250;-76
2022/09/12 03:54:36;;;;;;;20.40;12.67;;;11.80;99.90;;;;;;5030034;28;20906;-76
2022/09/12 03:57:02;;;;;;;15.50;11.80;;;11.60;99.90;;;;;;5029825;28;20226;-76
2022/09/12 03:59:28;;;;;;;21.63;11.53;;;11.50;99.90;;;;;;5029778;28;20196;-76
2022/09/12 04:01:56;;;;;;;20.20;13.00;;;11.50;99.90;;;;;;5029497;28;20211;-76
2022/09/12 04:04:22;;;;;;;17.63;13.07;;;11.40;99.90;;;;;;5029238;28;20876;-76
2022/09/12 04:06:47;;;;;;;20.73;13.03;;;11.50;99.90;;;;;;5030481;28;20413;-75
2022/09/12 04:09:13;;;;;;;23.00;12.13;;;11.40;99.90;;;;;;5030538;28;20555;-76
2022/09/12 04:11:38;;;;;;;17.47;12.23;;;11.40;99.90;;;;;;5028717;28;20959;-76
2022/09/12 04:14:04;;;;;;;17.27;12.73;;;11.40;99.90;;;;;;5028596;28;20289;-76
2022/09/12 04:16:31;;;;;;;19.50;12.40;;;11.30;99.90;;;;;;5028545;28;20210;-76
2022/09/12 04:18:56;;;;;;;19.27;13.20;;;11.20;99.90;;;;;;5030124;28;20171;-76
2022/09/12 04:21:22;;;;;;;18.40;12.00;;;11.30;99.90;;;;;;5028338;28;20459;-75
2022/09/12 04:23:48;;;;;;;20.27;13.07;;;11.10;99.90;;;;;;5029896;28;20187;-75
2022/09/12 04:26:16;;;;;;;14.33;10.90;;;11.10;99.90;;;;;;5029778;28;20279;-75
2022/09/12 04:28:42;;;;;;;17.30;12.03;;;11.10;99.90;;;;;;5028214;28;20478;-76
2022/09/12 04:31:16;;;;;;;22.17;12.87;;;11.10;99.90;;;;;;5029801;28;20418;-76
2022/09/12 04:33:43;;;;;;;16.47;11.27;;;11.20;99.90;;;;;;5028932;28;20432;-76
2022/09/12 04:36:15;;;;;;;22.87;11.50;;;11.00;99.90;;;;;;5029451;28;20448;-75
2022/09/12 04:38:43;;;;;;;21.27;12.33;;;11.00;99.90;;;;;;5029583;28;20430;-76
2022/09/12 04:41:24;;;;;;;20.10;12.40;;;10.90;99.90;;;;;;5028190;28;20461;-76
2022/09/12 04:44:00;;;;;;;20.43;11.43;;;11.10;99.90;;;;;;5027926;28;20438;-76
2022/09/12 04:46:26;;;;;;;23.90;11.40;;;10.90;99.90;;;;;;5029541;28;20416;-76
2022/09/12 04:48:52;;;;;;;13.80;11.43;;;10.80;99.90;;;;;;5029505;28;20758;-75
2022/09/12 04:51:21;;;;;;;16.07;11.07;;;10.70;99.90;;;;;;5027543;28;20455;-75
2022/09/12 04:53:49;;;;;;;15.63;11.87;;;10.80;99.90;;;;;;5029256;28;20268;-75
2022/09/12 04:56:15;;;;;;;15.70;12.10;;;10.70;99.90;;;;;;5010236;28;20430;-75
2022/09/12 04:58:41;;;;;;;21.20;10.60;;;10.90;99.90;;;;;;5027672;28;20421;-75
2022/09/12 05:01:10;;;;;;;23.70;12.10;;;10.80;99.90;;;;;;5026081;28;20512;-75
2022/09/12 05:03:38;;;;;;;18.23;11.37;;;10.70;99.90;;;;;;5027611;28;20679;-75
2022/09/12 05:06:09;;;;;;;14.13;10.00;;;10.70;99.90;;;;;;5026115;28;20916;-74
2022/09/12 05:08:34;;;;;;;12.37;8.40;;;10.70;99.90;;;;;;5027593;28;20414;-75
2022/09/12 05:11:06;;;;;;;13.70;9.50;;;10.70;99.90;;;;;;5027577;28;20493;-75
2022/09/12 05:13:32;;;;;;;15.87;10.43;;;10.70;99.90;;;;;;5027308;28;20194;-75
2022/09/12 05:15:59;;;;;;;11.77;9.50;;;10.70;99.90;;;;;;5025826;28;20522;-75
2022/09/12 05:18:26;;;;;;;13.23;10.50;;;10.60;99.90;;;;;;5027375;28;20421;-75
2022/09/12 05:20:54;;;;;;;18.77;12.03;;;10.60;99.90;;;;;;5025887;28;20433;-75
2022/09/12 05:23:20;;;;;;;17.00;11.90;;;10.70;99.90;;;;;;5027298;28;20537;-75
2022/09/12 05:25:54;;;;;;;18.57;11.77;;;10.70;99.90;;;;;;5028671;28;20518;-76
2022/09/12 05:28:21;;;;;;;20.23;12.33;;;10.70;99.90;;;;;;5027415;28;20441;-75
2022/09/12 05:30:47;;;;;;;13.93;10.60;;;10.80;99.90;;;;;;5025670;28;20430;-75
2022/09/12 05:33:14;;;;;;;15.33;10.43;;;10.80;99.90;;;;;;5026014;28;20473;-76
2022/09/12 05:35:40;;;;;;;15.83;11.07;;;10.80;99.90;;;;;;5027479;28;20421;-75
2022/09/12 05:38:06;;;;;;;19.23;10.40;;;10.80;99.90;;;;;;5027883;28;20420;-76
2022/09/12 05:40:32;;;;;;;16.57;11.63;;;10.80;99.90;;;;;;5026361;28;20524;-75
2022/09/12 05:42:58;;;;;;;15.67;9.53;;;10.80;99.90;;;;;;5027872;28;20448;-75
2022/09/12 05:45:25;;;;;;;13.67;10.60;;;10.80;99.90;;;;;;5027037;28;20463;-75
2022/09/12 05:47:53;;;;;;;23.70;11.60;;;10.90;99.90;;;;;;5031149;28;20979;-77
2022/09/12 05:50:19;;;;;;;19.17;12.60;;;11.00;99.90;;;;;;5029985;28;20429;-75
2022/09/12 05:52:44;;;;;;;12.63;9.50;;;11.00;99.90;;;;;;5030182;28;20455;-75
2022/09/12 05:55:10;;;;;;;15.27;9.83;;;11.20;99.90;;;;;;5030282;28;20994;-74
2022/09/12 05:57:36;;;;;;;12.73;9.93;;;11.30;99.90;;;;;;5028744;28;20516;-75
2022/09/12 06:00:04;;;;;;;13.10;9.93;;;11.40;99.90;;;;;;5011672;28;20190;-75
2022/09/12 06:02:29;;;;;;;12.87;9.70;;;11.60;99.90;;;;;;5029464;28;20321;-75
2022/09/12 06:04:55;;;;;;;12.43;9.13;;;11.80;99.90;;;;;;5030518;28;20617;-75
2022/09/12 06:07:21;;;;;;;13.70;9.10;;;12.10;99.90;;;;;;5032252;28;20233;-75
2022/09/12 06:09:46;;;;;;;20.30;9.67;;;12.20;99.90;;;;;;5015364;28;20767;-75
2022/09/12 06:12:12;;;;;;;12.67;9.67;;;12.80;99.90;;;;;;5030658;28;20208;-74
2022/09/12 06:14:38;;;;;;;8.40;7.10;;;13.30;99.90;;;;;;5032030;28;20186;-75
2022/09/12 06:17:04;;;;;;;8.70;7.23;;;13.90;99.90;;;;;;5030771;28;20191;-76
2022/09/12 06:19:29;;;;;;;11.87;7.97;;;14.30;99.90;;;;;;5030916;28;20602;-74
2022/09/12 06:21:55;;;;;;;9.60;8.10;;;14.60;99.90;;;;;;5030586;28;20446;-75
2022/09/12 06:24:21;;;;;;;11.97;9.47;;;14.80;99.90;;;;;;5013991;28;20258;-75
2022/09/12 06:26:48;;;;;;;9.67;7.97;;;14.70;99.90;;;;;;5031794;28;20179;-75
2022/09/12 06:29:15;;;;;;;10.10;7.70;;;14.50;99.90;;;;;;5030369;28;20169;-75
2022/09/12 06:31:42;;;;;;;7.67;6.87;;;14.70;99.90;;;;;;5031496;28;20538;-75
2022/09/12 06:34:10;;;;;;;11.87;7.83;;;14.60;99.90;;;;;;5031676;28;20447;-74
2022/09/12 06:36:41;;;;;;;8.33;7.00;;;14.60;99.90;;;;;;5031550;28;20474;-74
2022/09/12 06:39:10;;;;;;;12.63;7.50;;;14.80;99.90;;;;;;5031546;28;20425;-74
2022/09/12 06:41:35;;;;;;;8.60;7.70;;;14.70;99.90;;;;;;5029797;28;20443;-75
2022/09/12 06:44:02;;;;;;;9.87;8.40;;;14.50;99.90;;;;;;5029697;28;20454;-75
2022/09/12 06:46:29;;;;;;;14.10;9.43;;;14.30;99.90;;;;;;5030007;28;20177;-75
2022/09/12 06:48:55;;;;;;;13.33;9.50;;;14.20;99.90;;;;;;5031172;28;20854;-75
2022/09/12 06:51:21;;;;;;;10.93;9.57;;;14.10;99.90;;;;;;5030054;28;20439;-74
2022/09/12 06:53:48;;;;;;;18.50;11.40;;;14.10;99.90;;;;;;5030012;28;20785;-75
2022/09/12 06:56:21;;;;;;;14.83;10.00;;;14.10;99.90;;;;;;5031112;28;20768;-75
2022/09/12 06:58:48;;;;;;;12.30;10.63;;;13.90;99.90;;;;;;5029767;28;20902;-75
2022/09/12 07:01:20;;;;;;;15.23;10.60;;;14.00;99.90;;;;;;5030826;28;20420;-75
2022/09/12 07:03:51;;;;;;;14.97;11.57;;;13.90;99.90;;;;;;5029246;28;20522;-75
2022/09/12 07:06:19;;;;;;;16.43;12.60;;;13.90;99.90;;;;;;5030715;28;20502;-75
2022/09/12 07:08:45;;;;;;;15.80;12.50;;;13.90;99.90;;;;;;5030454;28;21188;-75
2022/09/12 07:11:22;;;;;;;14.20;11.63;;;14.00;99.90;;;;;;5030654;28;20490;-75
2022/09/12 07:13:50;;;;;;;21.37;12.10;;;14.00;99.90;;;;;;5029503;28;20514;-76
2022/09/12 07:16:16;;;;;;;18.83;12.30;;;14.10;99.90;;;;;;5030347;28;20892;-75
2022/09/12 07:18:42;;;;;;;15.93;12.03;;;14.10;99.90;;;;;;5030740;28;20449;-75
2022/09/12 07:21:13;;;;;;;16.80;11.73;;;14.10;99.90;;;;;;5030735;28;20426;-75
2022/09/12 07:23:40;;;;;;;18.30;12.73;;;14.10;99.90;;;;;;5030811;28;20871;-75
2022/09/12 07:26:07;;;;;;;14.47;11.83;;;14.20;99.90;;;;;;5031393;28;20570;-75
2022/09/12 07:28:33;;;;;;;18.97;12.90;;;14.20;99.90;;;;;;5029131;28;20434;-76
2022/09/12 07:31:08;;;;;;;18.03;12.00;;;14.30;99.90;;;;;;5028720;28;20419;-75
2022/09/12 07:33:34;;;;;;;13.73;9.97;;;14.30;99.90;;;;;;5028353;28;20436;-75
2022/09/12 07:36:05;;;;;;;21.23;12.03;;;14.30;99.90;;;;;;5028510;28;21236;-75
2022/09/12 07:38:31;;;;;;;15.00;11.20;;;14.40;99.90;;;;;;5029807;28;20423;-75
2022/09/12 07:40:57;;;;;;;11.97;9.70;;;14.40;99.90;;;;;;5028537;28;20475;-75
2022/09/12 07:43:23;;;;;;;14.87;10.53;;;14.60;99.90;;;;;;5028201;28;20921;-76
2022/09/12 07:45:54;;;;;;;11.30;8.80;;;14.80;99.90;;;;;;5029337;28;20480;-76
2022/09/12 07:48:20;;;;;;;11.33;9.43;;;14.80;99.90;;;;;;5029125;28;20217;-75
2022/09/12 07:50:45;;;;;;;12.57;10.37;;;14.90;99.90;;;;;;4994944;28;20423;-75
2022/09/12 07:53:11;;;;;;;10.60;8.80;;;15.00;99.90;;;;;;5011394;28;20208;-76
2022/09/12 07:55:37;;;;;;;9.33;8.30;;;15.10;99.90;;;;;;5029233;28;20726;-76
2022/09/12 07:58:03;;;;;;;13.40;8.70;;;15.20;99.90;;;;;;5029474;28;20484;-76
2022/09/12 08:00:34;;;;;;;9.60;7.70;;;15.30;99.90;;;;;;5029613;28;20198;-76
2022/09/12 08:03:01;;;;;;;13.23;9.20;;;15.50;99.90;;;;;;5029658;28;20292;-76
2022/09/12 08:05:28;;;;;;;9.40;7.57;;;15.50;99.90;;;;;;5029581;28;20491;-76
2022/09/12 08:07:54;;;;;;;10.90;7.60;;;15.60;99.90;;;;;;5029017;28;20423;-76
2022/09/12 08:10:20;;;;;;;9.80;7.17;;;15.70;99.90;;;;;;5029441;28;20815;-76
2022/09/12 08:12:45;;;;;;;8.20;7.10;;;15.70;99.90;;;;;;5029209;28;20328;-76
2022/09/12 08:15:11;;;;;;;8.10;6.67;;;15.90;99.90;;;;;;5028093;28;20559;-76
2022/09/12 08:17:36;;;;;;;11.00;6.90;;;16.00;99.90;;;;;;5011657;28;20246;-76
2022/09/12 08:20:03;;;;;;;10.40;6.43;;;16.20;99.90;;;;;;5029403;28;20277;-76
2022/09/12 08:22:30;;;;;;;7.83;7.03;;;16.30;99.90;;;;;;5029282;28;20779;-76
2022/09/12 08:24:55;;;;;;;10.10;6.20;;;16.30;99.90;;;;;;5011680;28;20602;-76
2022/09/12 08:27:21;;;;;;;9.47;6.30;;;16.50;99.90;;;;;;5027031;28;20515;-76
2022/09/12 08:29:46;;;;;;;7.20;6.30;;;16.70;99.90;;;;;;5029188;28;20193;-76
2022/09/12 08:32:12;;;;;;;8.27;6.07;;;16.90;99.90;;;;;;5029017;28;20276;-76
2022/09/12 08:34:38;;;;;;;10.70;6.87;;;17.10;99.90;;;;;;5029079;28;20195;-77
2022/09/12 08:37:04;;;;;;;19.10;7.67;;;17.20;99.90;;;;;;5011159;28;20194;-76
2022/09/12 08:39:31;;;;;;;10.53;6.27;;;17.40;99.90;;;;;;5029183;28;20237;-76
2022/09/12 08:42:05;;;;;;;8.90;7.07;;;17.50;99.90;;;;;;5027378;28;20523;-76
2022/09/12 08:44:48;;;;;;;7.23;6.33;;;17.80;99.90;;;;;;5028676;28;20915;-76
2022/09/12 08:47:25;;;;;;;7.20;5.37;;;17.90;99.90;;;;;;5028861;28;20394;-76
2022/09/12 08:50:10;;;;;;;5.50;4.67;;;18.10;99.90;;;;;;5028782;28;20934;-76
2022/09/12 08:52:45;;;;;;;5.37;4.97;;;18.30;99.90;;;;;;5028710;28;20446;-76
2022/09/12 08:55:30;;;;;;;5.80;4.73;;;18.60;99.90;;;;;;5028867;28;20428;-77
2022/09/12 08:57:57;;;;;;;5.60;5.10;;;18.90;99.90;;;;;;5028697;28;20416;-75
2022/09/12 09:00:23;;;;;;;5.70;5.00;;;19.20;99.90;;;;;;5028749;28;20430;-75
2022/09/12 09:03:14;;;;;;;5.87;4.70;;;19.40;99.90;;;;;;5027050;28;20458;-76
2022/09/12 09:06:02;;;;;;;4.60;4.20;;;19.70;99.90;;;;;;5028352;28;20466;-75
2022/09/12 09:08:30;;;;;;;5.63;3.93;;;20.00;99.90;;;;;;5028309;28;20414;-75
2022/09/12 09:11:06;;;;;;;5.23;3.90;;;20.10;99.90;;;;;;5026808;28;20423;-76
2022/09/12 09:16:31;;;;;;;4.27;3.80;;;20.70;99.90;;;;;;5028073;28;20463;-76
2022/09/12 09:19:02;;;;;;;4.80;3.90;;;21.20;99.90;;;;;;5027977;28;20395;-75
2022/09/12 09:21:43;;;;;;;3.70;3.40;;;21.50;99.90;;;;;;5026896;28;20451;-76
2022/09/12 09:24:12;;;;;;;4.30;3.30;;;21.90;99.90;;;;;;5026795;28;20423;-76
2022/09/12 09:26:48;;;;;;;3.27;2.97;;;22.30;99.90;;;;;;5028526;28;20481;-76
2022/09/12 09:29:17;;;;;;;4.20;3.30;;;22.60;99.90;;;;;;5028457;28;20419;-76
2022/09/12 09:31:47;;;;;;;3.93;3.30;;;22.90;99.90;;;;;;5028975;28;20525;-76
2022/09/12 09:34:19;;;;;;;3.70;3.40;;;23.30;99.90;;;;;;5028669;28;20904;-76
2022/09/12 09:37:15;;;;;;;3.03;2.83;;;23.70;99.90;;;;;;5028468;28;20492;-75
2022/09/12 09:39:57;;;;;;;4.70;3.90;;;24.00;99.90;;;;;;5028173;28;20498;-76
2022/09/12 09:42:36;;;;;;;5.37;3.97;;;24.10;99.90;;;;;;5027945;28;20432;-75
2022/09/12 09:45:14;;;;;;;3.73;3.13;;;24.30;99.90;;;;;;5028106;28;20491;-77
2022/09/12 09:47:40;;;;;;;4.90;3.70;;;24.80;99.90;;;;;;5010395;28;20448;-77
2022/09/12 09:50:06;;;;;;;4.00;3.63;;;25.10;99.90;;;;;;5026590;28;20418;-76
2022/09/12 09:52:31;;;;;;;3.70;3.40;;;25.40;99.90;;;;;;5027601;28;20265;-77
2022/09/12 09:55:00;;;;;;;7.20;3.60;;;25.70;99.90;;;;;;5027933;28;20504;-76
2022/09/12 09:57:35;;;;;;;5.73;3.50;;;25.80;99.40;;;;;;5027769;28;20522;-76
2022/09/12 10:00:30;;;;;;;3.20;3.00;;;26.10;98.70;;;;;;5028255;28;20425;-76
2022/09/12 10:03:07;;;;;;;10.70;4.30;;;26.20;97.40;;;;;;5019079;28;20498;-76
2022/09/12 10:05:55;;;;;;;4.70;2.67;;;26.30;97.00;;;;;;5027401;28;20920;-76
2022/09/12 10:08:30;;;;;;;5.43;2.77;;;26.20;96.90;;;;;;5025681;28;20434;-76
2022/09/12 10:10:57;;;;;;;2.73;2.33;;;26.50;95.90;;;;;;5027037;28;20934;-75
2022/09/12 10:13:34;;;;;;;3.47;2.67;;;26.50;94.90;;;;;;5027059;28;20818;-75
2022/09/12 10:16:23;;;;;;;14.50;3.50;;;26.60;94.70;;;;;;5027249;28;20870;-76
2022/09/12 10:18:51;;;;;;;3.30;2.30;;;26.80;94.20;;;;;;5027069;28;20425;-76
2022/09/12 10:21:17;;;;;;;4.03;3.00;;;26.80;93.60;;;;;;5026899;28;20426;-76
2022/09/12 10:23:45;;;;;;;4.13;2.50;;;26.70;94.20;;;;;;5027043;28;20767;-76
2022/09/12 10:26:13;;;;;;;3.73;2.30;;;27.00;94.00;;;;;;5026711;28;20470;-76
2022/09/12 10:28:45;;;;;;;5.33;3.07;;;27.00;92.60;;;;;;5025697;28;20932;-76
2022/09/12 10:31:27;;;;;;;4.40;2.40;;;27.30;93.40;;;;;;5026805;28;21276;-75
2022/09/12 10:33:56;;;;;;;3.30;2.87;;;27.20;92.00;;;;;;5026941;28;20400;-76
2022/09/12 10:36:23;;;;;;;2.80;2.60;;;27.30;92.20;;;;;;5025580;28;20435;-78
2022/09/12 10:38:51;;;;;;;4.60;2.90;;;27.50;92.10;;;;;;5027383;28;20759;-76
2022/09/12 10:41:17;;;;;;;2.53;2.30;;;27.50;92.00;;;;;;5027010;28;20431;-75
2022/09/12 10:43:44;;;;;;;6.67;2.10;;;27.50;91.40;;;;;;5009666;28;20491;-75
2022/09/12 10:46:18;;;;;;;4.17;2.50;;;27.70;90.00;;;;;;5027001;28;20513;-75
2022/09/12 10:48:48;;;;;;;2.40;2.20;;;27.60;90.80;;;;;;5025064;28;20418;-74
2022/09/12 10:51:26;;;;;;;2.43;2.23;;;27.80;89.30;;;;;;5029289;28;20904;-74
2022/09/12 10:53:59;;;;;;;2.60;2.27;;;27.80;88.60;;;;;;5030008;28;20418;-76
2022/09/12 10:56:33;;;;;;;3.10;2.37;;;27.60;88.90;;;;;;5030067;28;20427;-75
2022/09/12 10:59:17;;;;;;;3.40;2.80;;;27.80;90.80;;;;;;5030237;28;20434;-76
2022/09/12 11:02:12;;;;;;;2.53;2.33;;;27.90;88.30;;;;;;5029971;28;20542;-76
2022/09/12 11:04:57;;;;;;;4.10;2.40;;;28.00;87.80;;;;;;5029917;28;20536;-74
2022/09/12 11:07:38;;;;;;;2.83;2.60;;;28.10;88.70;;;;;;5029891;28;21334;-76
2022/09/12 11:10:31;;;;;;;2.53;2.33;;;28.20;84.30;;;;;;5029941;28;20777;-74
2022/09/12 11:13:09;;;;;;;2.53;1.80;;;28.30;82.20;;;;;;5029819;28;21038;-74
2022/09/12 11:15:48;;;;;;;2.47;2.30;;;28.20;83.10;;;;;;5029867;28;20441;-74
2022/09/12 11:18:43;;;;;;;3.30;2.43;;;28.30;82.70;;;;;;5029849;28;20494;-76
2022/09/12 11:21:27;;;;;;;2.60;2.33;;;28.30;81.00;;;;;;5029755;28;20455;-74
2022/09/12 11:24:03;;;;;;;6.27;2.23;;;28.10;80.10;;;;;;5028064;28;20878;-76
2022/09/12 11:26:49;;;;;;;2.30;2.20;;;27.90;82.70;;;;;;5029645;28;20466;-74
2022/09/12 11:29:40;;;;;;;1.90;1.80;;;27.70;84.60;;;;;;5029456;28;20964;-75
2022/09/12 11:32:36;;;;;;;3.90;1.93;;;27.80;84.60;;;;;;5029777;28;20491;-74
2022/09/12 11:35:25;;;;;;;2.40;1.90;;;27.40;81.60;;;;;;5030293;28;20415;-74
2022/09/12 11:37:59;;;;;;;5.63;2.07;;;28.00;82.20;;;;;;5029596;28;20419;-75
2022/09/12 11:40:36;;;;;;;1.83;1.73;;;28.10;82.70;;;;;;5029481;28;20483;-75
2022/09/12 11:43:30;;;;;;;2.77;2.33;;;28.20;82.40;;;;;;5029572;28;20435;-75
2022/09/12 11:46:00;;;;;;;2.20;2.10;;;28.00;80.80;;;;;;5029292;28;20481;-75
2022/09/12 11:48:37;;;;;;;3.40;2.47;;;28.20;81.10;;;;;;5029757;28;20502;-77
2022/09/12 11:51:06;;;;;;;2.27;1.77;;;28.00;79.80;;;;;;5029341;28;20426;-74
2022/09/12 11:53:37;;;;;;;4.57;2.33;;;27.80;82.40;;;;;;5029678;28;20419;-76
2022/09/12 11:56:17;;;;;;;3.93;2.27;;;28.10;80.20;;;;;;5029820;28;20422;-76
2022/09/12 11:58:51;;;;;;;4.43;1.70;;;28.10;78.20;;;;;;5030445;28;20683;-75
2022/09/12 12:01:23;;;;;;;3.57;1.73;;;28.10;78.60;;;;;;5031121;28;20450;-75
2022/09/12 12:03:51;;;;;;;2.53;2.30;;;28.20;78.00;;;;;;5032092;28;20502;-75
2022/09/12 12:06:25;;;;;;;6.13;1.90;;;28.10;76.10;;;;;;5031478;28;20458;-75
2022/09/12 12:08:51;;;;;;;3.40;1.80;;;28.10;78.50;;;;;;5030022;28;20420;-77
2022/09/12 12:11:40;;;;;;;1.80;1.60;;;28.00;78.80;;;;;;5031875;28;20415;-77
2022/09/12 12:14:14;;;;;;;3.77;2.00;;;27.90;78.60;;;;;;5030039;28;20435;-76
2022/09/12 12:16:41;;;;;;;1.50;1.40;;;27.70;78.10;;;;;;5030294;28;20502;-76
2022/09/12 12:19:16;;;;;;;1.80;1.40;;;27.80;79.10;;;;;;5028277;28;20479;-74
2022/09/12 12:21:43;;;;;;;1.90;1.80;;;27.90;75.80;;;;;;5028928;28;20442;-75
2022/09/12 12:24:09;;;;;;;1.27;1.17;;;28.00;72.90;;;;;;5029182;28;20424;-75
2022/09/12 12:26:37;;;;;;;1.27;1.17;;;28.10;74.50;;;;;;5027059;28;20466;-75
2022/09/12 12:29:27;;;;;;;1.33;1.23;;;28.30;70.50;;;;;;5028703;28;20180;-75
2022/09/12 12:32:00;;;;;;;5.03;1.70;;;28.30;72.40;;;;;;5022662;28;20455;-76
2022/09/12 12:34:33;;;;;;;2.63;1.37;;;27.90;73.20;;;;;;5028260;28;20423;-76
2022/09/12 12:37:19;;;;;;;1.97;1.30;;;28.10;75.00;;;;;;5028501;28;20506;-75
2022/09/12 12:39:49;;;;;;;1.37;0.90;;;27.40;66.00;;;;;;5028139;28;20423;-75
2022/09/12 12:42:35;;;;;;;1.57;0.80;;;27.80;69.90;;;;;;5027947;28;20527;-75
2022/09/12 12:45:18;;;;;;;1.00;0.93;;;27.40;63.30;;;;;;5028633;28;20468;-75
2022/09/12 12:47:48;;;;;;;1.43;1.00;;;27.50;67.20;;;;;;5028433;28;20415;-75
2022/09/12 12:50:20;;;;;;;2.80;1.00;;;27.80;67.80;;;;;;5010360;28;20458;-75
2022/09/12 12:53:03;;;;;;;1.83;1.10;;;27.90;67.40;;;;;;5026543;28;20439;-75
2022/09/12 12:55:37;;;;;;;1.00;0.90;;;28.10;64.80;;;;;;5011633;28;20844;-75
2022/09/12 12:58:05;;;;;;;2.20;1.30;;;28.00;64.50;;;;;;5027965;28;20406;-76
2022/09/12 13:00:33;;;;;;;1.20;1.10;;;28.10;63.00;;;;;;5028226;28;20423;-76
2022/09/12 13:03:07;;;;;;;1.43;1.10;;;28.20;63.90;;;;;;5028601;28;20530;-75
2022/09/12 13:05:46;;;;;;;1.20;1.00;;;28.20;61.30;;;;;;5028352;28;20497;-75